sensor_id;sensor_type;location;lat;lon;timestamp;P1;durP1;ratioP1;P2;durP2;ratioP2
75456;SDS011;64036;48.266;14.192;2023-01-20T00:00:00;14.90;;;8.10;;
75456;SDS011;64036;48.266;14.192;2023-01-20T00:02:46;11.80;;;6.70;;
75456;SDS011;64036;48.266;14.192;2023-01-20T00:08:46;11.00;;;5.70;;
75456;SDS011;64036;48.266;14.192;2023-01-20T00:11:34;11.20;;;6.50;;
75456;SDS011;64036;48.266;14.192;2023-01-20T00:14:01;12.20;;;6.30;;
75456;SDS011;64036;48.266;14.192;2023-01-20T00:16:28;10.70;;;6.40;;
75456;SDS011;64036;48.266;14.192;2023-01-20T00:19:07;12.20;;;6.00;;
75456;SDS011;64036;48.266;14.192;2023-01-20T00:22:05;10.60;;;5.80;;
75456;SDS011;64036;48.266;14.192;2023-01-20T00:28:35;10.20;;;5.60;;
75456;SDS011;64036;48.266;14.192;2023-01-20T00:31:48;9.10;;;4.90;;
75456;SDS011;64036;48.266;14.192;2023-01-20T00:34:45;10.80;;;4.90;;
75456;SDS011;64036;48.266;14.192;2023-01-20T00:37:48;11.20;;;5.00;;
75456;SDS011;64036;48.266;14.192;2023-01-20T00:40:31;9.70;;;5.20;;
75456;SDS011;64036;48.266;14.192;2023-01-20T00:48:49;9.40;;;4.60;;
75456;SDS011;64036;48.266;14.192;2023-01-20T00:51:38;10.30;;;4.70;;
75456;SDS011;64036;48.266;14.192;2023-01-20T00:54:21;8.60;;;4.80;;
75456;SDS011;64036;48.266;14.192;2023-01-20T00:57:15;8.10;;;4.50;;
75456;SDS011;64036;48.266;14.192;2023-01-20T01:00:17;10.80;;;5.60;;
75456;SDS011;64036;48.266;14.192;2023-01-20T01:03:05;10.00;;;4.60;;
75456;SDS011;64036;48.266;14.192;2023-01-20T01:05:54;9.50;;;4.80;;
75456;SDS011;64036;48.266;14.192;2023-01-20T01:08:53;9.10;;;4.20;;
75456;SDS011;64036;48.266;14.192;2023-01-20T01:11:28;9.40;;;5.10;;
75456;SDS011;64036;48.266;14.192;2023-01-20T01:17:05;9.00;;;4.50;;
75456;SDS011;64036;48.266;14.192;2023-01-20T01:20:11;8.00;;;4.20;;
75456;SDS011;64036;48.266;14.192;2023-01-20T01:23:07;8.60;;;4.80;;
75456;SDS011;64036;48.266;14.192;2023-01-20T01:26:02;13.40;;;5.10;;
75456;SDS011;64036;48.266;14.192;2023-01-20T01:28:28;11.40;;;5.60;;
75456;SDS011;64036;48.266;14.192;2023-01-20T01:30:59;10.10;;;5.50;;
75456;SDS011;64036;48.266;14.192;2023-01-20T01:40:30;8.70;;;4.50;;
75456;SDS011;64036;48.266;14.192;2023-01-20T01:43:30;8.70;;;4.80;;
75456;SDS011;64036;48.266;14.192;2023-01-20T01:50:06;8.80;;;4.60;;
75456;SDS011;64036;48.266;14.192;2023-01-20T01:52:51;9.70;;;4.70;;
75456;SDS011;64036;48.266;14.192;2023-01-20T02:02:35;7.70;;;3.60;;
75456;SDS011;64036;48.266;14.192;2023-01-20T02:05:43;8.90;;;5.10;;
75456;SDS011;64036;48.266;14.192;2023-01-20T02:11:41;8.90;;;5.40;;
75456;SDS011;64036;48.266;14.192;2023-01-20T02:14:30;9.80;;;5.50;;
75456;SDS011;64036;48.266;14.192;2023-01-20T02:17:35;9.90;;;5.60;;
75456;SDS011;64036;48.266;14.192;2023-01-20T02:24:06;10.10;;;5.00;;
75456;SDS011;64036;48.266;14.192;2023-01-20T02:27:39;5.80;;;3.00;;
75456;SDS011;64036;48.266;14.192;2023-01-20T02:31:30;7.30;;;4.20;;
75456;SDS011;64036;48.266;14.192;2023-01-20T02:56:10;8.40;;;4.50;;
75456;SDS011;64036;48.266;14.192;2023-01-20T02:59:12;10.80;;;5.90;;
75456;SDS011;64036;48.266;14.192;2023-01-20T03:02:37;12.90;;;6.10;;
75456;SDS011;64036;48.266;14.192;2023-01-20T03:05:25;9.00;;;3.90;;
75456;SDS011;64036;48.266;14.192;2023-01-20T03:08:15;9.40;;;5.40;;
75456;SDS011;64036;48.266;14.192;2023-01-20T03:11:14;12.10;;;6.20;;
75456;SDS011;64036;48.266;14.192;2023-01-20T03:14:05;12.00;;;7.00;;
75456;SDS011;64036;48.266;14.192;2023-01-20T03:16:33;12.50;;;7.00;;
75456;SDS011;64036;48.266;14.192;2023-01-20T03:18:59;11.00;;;5.90;;
75456;SDS011;64036;48.266;14.192;2023-01-20T03:24:55;11.20;;;5.20;;
75456;SDS011;64036;48.266;14.192;2023-01-20T03:27:39;9.80;;;5.30;;
75456;SDS011;64036;48.266;14.192;2023-01-20T03:30:19;10.50;;;5.60;;
75456;SDS011;64036;48.266;14.192;2023-01-20T03:33:02;9.40;;;5.00;;
75456;SDS011;64036;48.266;14.192;2023-01-20T03:35:35;12.40;;;6.80;;
75456;SDS011;64036;48.266;14.192;2023-01-20T03:38:35;11.00;;;6.30;;
75456;SDS011;64036;48.266;14.192;2023-01-20T03:41:06;9.40;;;5.40;;
75456;SDS011;64036;48.266;14.192;2023-01-20T03:51:12;10.70;;;5.50;;
75456;SDS011;64036;48.266;14.192;2023-01-20T03:54:39;13.90;;;6.40;;
75456;SDS011;64036;48.266;14.192;2023-01-20T04:03:45;9.70;;;5.20;;
75456;SDS011;64036;48.266;14.192;2023-01-20T04:06:25;11.50;;;6.40;;
75456;SDS011;64036;48.266;14.192;2023-01-20T04:09:14;11.50;;;6.50;;
75456;SDS011;64036;48.266;14.192;2023-01-20T04:12:12;13.60;;;6.30;;
75456;SDS011;64036;48.266;14.192;2023-01-20T04:15:10;11.30;;;6.00;;
75456;SDS011;64036;48.266;14.192;2023-01-20T04:17:52;11.60;;;7.10;;
75456;SDS011;64036;48.266;14.192;2023-01-20T04:20:18;12.10;;;6.70;;
75456;SDS011;64036;48.266;14.192;2023-01-20T04:22:56;12.60;;;6.80;;
75456;SDS011;64036;48.266;14.192;2023-01-20T04:30:54;13.10;;;7.40;;
75456;SDS011;64036;48.266;14.192;2023-01-20T04:33:40;12.50;;;7.10;;
75456;SDS011;64036;48.266;14.192;2023-01-20T04:36:12;13.00;;;7.40;;
75456;SDS011;64036;48.266;14.192;2023-01-20T04:41:31;13.40;;;6.20;;
75456;SDS011;64036;48.266;14.192;2023-01-20T04:44:07;11.10;;;6.80;;
75456;SDS011;64036;48.266;14.192;2023-01-20T04:46:42;13.20;;;7.40;;
75456;SDS011;64036;48.266;14.192;2023-01-20T04:49:13;11.20;;;6.50;;
75456;SDS011;64036;48.266;14.192;2023-01-20T04:56:50;10.50;;;5.50;;
75456;SDS011;64036;48.266;14.192;2023-01-20T05:09:20;9.40;;;5.70;;
75456;SDS011;64036;48.266;14.192;2023-01-20T05:12:18;10.00;;;4.50;;
75456;SDS011;64036;48.266;14.192;2023-01-20T05:15:31;10.00;;;5.50;;
75456;SDS011;64036;48.266;14.192;2023-01-20T05:18:26;10.30;;;5.80;;
75456;SDS011;64036;48.266;14.192;2023-01-20T05:21:37;11.20;;;5.70;;
75456;SDS011;64036;48.266;14.192;2023-01-20T05:24:34;9.30;;;5.70;;
75456;SDS011;64036;48.266;14.192;2023-01-20T05:30:46;11.80;;;6.30;;
75456;SDS011;64036;48.266;14.192;2023-01-20T05:33:44;12.00;;;6.30;;
75456;SDS011;64036;48.266;14.192;2023-01-20T05:36:38;15.10;;;6.10;;
75456;SDS011;64036;48.266;14.192;2023-01-20T05:39:14;12.40;;;5.60;;
75456;SDS011;64036;48.266;14.192;2023-01-20T05:42:14;12.60;;;5.80;;
75456;SDS011;64036;48.266;14.192;2023-01-20T05:45:32;9.20;;;5.20;;
75456;SDS011;64036;48.266;14.192;2023-01-20T05:48:14;9.90;;;5.50;;
75456;SDS011;64036;48.266;14.192;2023-01-20T05:50:48;9.90;;;4.90;;
75456;SDS011;64036;48.266;14.192;2023-01-20T05:53:34;10.40;;;5.30;;
75456;SDS011;64036;48.266;14.192;2023-01-20T05:56:09;11.20;;;6.00;;
75456;SDS011;64036;48.266;14.192;2023-01-20T05:58:48;12.10;;;6.00;;
75456;SDS011;64036;48.266;14.192;2023-01-20T06:01:43;10.40;;;6.20;;
75456;SDS011;64036;48.266;14.192;2023-01-20T06:04:44;10.40;;;6.30;;
75456;SDS011;64036;48.266;14.192;2023-01-20T06:08:11;10.30;;;5.30;;
75456;SDS011;64036;48.266;14.192;2023-01-20T06:10:36;11.30;;;5.40;;
75456;SDS011;64036;48.266;14.192;2023-01-20T06:13:02;10.50;;;4.70;;
75456;SDS011;64036;48.266;14.192;2023-01-20T06:15:40;9.20;;;5.20;;
75456;SDS011;64036;48.266;14.192;2023-01-20T06:18:56;14.00;;;6.30;;
75456;SDS011;64036;48.266;14.192;2023-01-20T06:28:12;11.10;;;6.30;;
75456;SDS011;64036;48.266;14.192;2023-01-20T06:30:59;10.80;;;6.70;;
75456;SDS011;64036;48.266;14.192;2023-01-20T06:41:18;13.40;;;6.60;;
75456;SDS011;64036;48.266;14.192;2023-01-20T06:47:23;11.40;;;6.80;;
75456;SDS011;64036;48.266;14.192;2023-01-20T06:50:11;11.30;;;6.10;;
75456;SDS011;64036;48.266;14.192;2023-01-20T06:52:43;12.60;;;7.50;;
75456;SDS011;64036;48.266;14.192;2023-01-20T06:55:14;16.00;;;8.60;;
75456;SDS011;64036;48.266;14.192;2023-01-20T06:58:03;14.20;;;7.70;;
75456;SDS011;64036;48.266;14.192;2023-01-20T07:00:28;14.90;;;7.90;;
75456;SDS011;64036;48.266;14.192;2023-01-20T07:02:54;12.10;;;7.10;;
75456;SDS011;64036;48.266;14.192;2023-01-20T07:05:20;11.50;;;7.10;;
75456;SDS011;64036;48.266;14.192;2023-01-20T07:07:46;13.40;;;8.20;;
75456;SDS011;64036;48.266;14.192;2023-01-20T07:10:14;14.00;;;8.20;;
75456;SDS011;64036;48.266;14.192;2023-01-20T07:12:40;13.30;;;7.60;;
75456;SDS011;64036;48.266;14.192;2023-01-20T07:15:17;12.60;;;7.40;;
75456;SDS011;64036;48.266;14.192;2023-01-20T07:17:46;11.60;;;7.60;;
75456;SDS011;64036;48.266;14.192;2023-01-20T07:20:12;14.10;;;7.80;;
75456;SDS011;64036;48.266;14.192;2023-01-20T07:22:38;12.60;;;7.20;;
75456;SDS011;64036;48.266;14.192;2023-01-20T07:25:07;13.90;;;7.20;;
75456;SDS011;64036;48.266;14.192;2023-01-20T07:27:33;12.90;;;7.40;;
75456;SDS011;64036;48.266;14.192;2023-01-20T07:29:58;13.90;;;8.00;;
75456;SDS011;64036;48.266;14.192;2023-01-20T07:32:30;13.90;;;8.00;;
75456;SDS011;64036;48.266;14.192;2023-01-20T07:34:56;13.30;;;8.10;;
75456;SDS011;64036;48.266;14.192;2023-01-20T07:37:22;13.30;;;8.70;;
75456;SDS011;64036;48.266;14.192;2023-01-20T07:39:51;13.90;;;8.30;;
75456;SDS011;64036;48.266;14.192;2023-01-20T07:42:16;12.20;;;7.00;;
75456;SDS011;64036;48.266;14.192;2023-01-20T07:44:51;13.40;;;7.20;;
75456;SDS011;64036;48.266;14.192;2023-01-20T07:47:22;13.50;;;7.70;;
75456;SDS011;64036;48.266;14.192;2023-01-20T07:49:48;12.40;;;7.50;;
75456;SDS011;64036;48.266;14.192;2023-01-20T07:52:26;13.30;;;7.40;;
75456;SDS011;64036;48.266;14.192;2023-01-20T07:55:03;12.80;;;8.10;;
75456;SDS011;64036;48.266;14.192;2023-01-20T07:57:29;13.10;;;8.10;;
75456;SDS011;64036;48.266;14.192;2023-01-20T07:59:55;15.00;;;8.40;;
75456;SDS011;64036;48.266;14.192;2023-01-20T08:02:21;14.20;;;8.20;;
75456;SDS011;64036;48.266;14.192;2023-01-20T08:04:46;13.70;;;8.10;;
75456;SDS011;64036;48.266;14.192;2023-01-20T08:07:12;15.10;;;7.90;;
75456;SDS011;64036;48.266;14.192;2023-01-20T08:09:38;12.70;;;7.00;;
75456;SDS011;64036;48.266;14.192;2023-01-20T08:12:06;12.70;;;7.80;;
75456;SDS011;64036;48.266;14.192;2023-01-20T08:14:42;11.40;;;7.40;;
75456;SDS011;64036;48.266;14.192;2023-01-20T08:17:10;13.60;;;8.30;;
75456;SDS011;64036;48.266;14.192;2023-01-20T08:19:46;13.60;;;8.70;;
75456;SDS011;64036;48.266;14.192;2023-01-20T08:22:19;11.50;;;7.50;;
75456;SDS011;64036;48.266;14.192;2023-01-20T08:24:49;13.10;;;7.80;;
75456;SDS011;64036;48.266;14.192;2023-01-20T08:27:26;13.70;;;7.70;;
75456;SDS011;64036;48.266;14.192;2023-01-20T08:29:53;14.50;;;8.60;;
75456;SDS011;64036;48.266;14.192;2023-01-20T08:32:38;13.90;;;9.30;;
75456;SDS011;64036;48.266;14.192;2023-01-20T08:35:11;14.50;;;9.80;;
75456;SDS011;64036;48.266;14.192;2023-01-20T08:37:41;20.50;;;12.40;;
75456;SDS011;64036;48.266;14.192;2023-01-20T08:40:16;20.50;;;11.90;;
75456;SDS011;64036;48.266;14.192;2023-01-20T08:43:02;18.20;;;10.10;;
75456;SDS011;64036;48.266;14.192;2023-01-20T08:45:28;28.70;;;17.90;;
75456;SDS011;64036;48.266;14.192;2023-01-20T08:48:23;28.70;;;16.30;;
75456;SDS011;64036;48.266;14.192;2023-01-20T08:51:10;34.90;;;20.50;;
75456;SDS011;64036;48.266;14.192;2023-01-20T08:54:15;27.10;;;15.70;;
75456;SDS011;64036;48.266;14.192;2023-01-20T08:56:43;30.10;;;18.60;;
75456;SDS011;64036;48.266;14.192;2023-01-20T08:59:19;21.60;;;15.20;;
75456;SDS011;64036;48.266;14.192;2023-01-20T09:01:48;20.90;;;12.80;;
75456;SDS011;64036;48.266;14.192;2023-01-20T09:04:26;16.90;;;12.40;;
75456;SDS011;64036;48.266;14.192;2023-01-20T09:07:05;20.00;;;13.10;;
75456;SDS011;64036;48.266;14.192;2023-01-20T09:09:52;18.00;;;11.30;;
75456;SDS011;64036;48.266;14.192;2023-01-20T09:16:13;18.50;;;12.70;;
75456;SDS011;64036;48.266;14.192;2023-01-20T09:19:00;21.40;;;13.70;;
75456;SDS011;64036;48.266;14.192;2023-01-20T09:21:27;21.70;;;14.40;;
75456;SDS011;64036;48.266;14.192;2023-01-20T09:23:53;33.20;;;23.20;;
75456;SDS011;64036;48.266;14.192;2023-01-20T09:26:21;27.70;;;17.30;;
75456;SDS011;64036;48.266;14.192;2023-01-20T09:28:50;26.90;;;14.70;;
75456;SDS011;64036;48.266;14.192;2023-01-20T09:31:16;38.80;;;19.70;;
75456;SDS011;64036;48.266;14.192;2023-01-20T09:33:50;30.20;;;15.70;;
75456;SDS011;64036;48.266;14.192;2023-01-20T09:36:16;21.00;;;12.50;;
75456;SDS011;64036;48.266;14.192;2023-01-20T09:38:45;20.60;;;11.20;;
75456;SDS011;64036;48.266;14.192;2023-01-20T09:41:37;16.50;;;10.60;;
75456;SDS011;64036;48.266;14.192;2023-01-20T09:48:12;16.00;;;10.30;;
75456;SDS011;64036;48.266;14.192;2023-01-20T09:51:43;16.50;;;9.40;;
75456;SDS011;64036;48.266;14.192;2023-01-20T09:55:07;13.30;;;8.00;;
75456;SDS011;64036;48.266;14.192;2023-01-20T09:57:45;13.50;;;8.90;;
75456;SDS011;64036;48.266;14.192;2023-01-20T10:00:50;15.60;;;9.20;;
75456;SDS011;64036;48.266;14.192;2023-01-20T10:03:42;14.50;;;7.50;;
75456;SDS011;64036;48.266;14.192;2023-01-20T10:06:34;12.40;;;8.00;;
75456;SDS011;64036;48.266;14.192;2023-01-20T10:12:18;15.50;;;8.30;;
75456;SDS011;64036;48.266;14.192;2023-01-20T10:20:29;11.60;;;7.20;;
75456;SDS011;64036;48.266;14.192;2023-01-20T10:23:17;13.50;;;8.70;;
75456;SDS011;64036;48.266;14.192;2023-01-20T10:29:01;13.50;;;8.20;;
75456;SDS011;64036;48.266;14.192;2023-01-20T10:37:06;13.50;;;7.50;;
75456;SDS011;64036;48.266;14.192;2023-01-20T10:42:32;12.90;;;8.00;;
75456;SDS011;64036;48.266;14.192;2023-01-20T10:45:20;11.80;;;8.20;;
75456;SDS011;64036;48.266;14.192;2023-01-20T10:51:39;14.00;;;8.60;;
75456;SDS011;64036;48.266;14.192;2023-01-20T10:54:35;12.80;;;8.30;;
75456;SDS011;64036;48.266;14.192;2023-01-20T10:58:17;13.60;;;8.70;;
75456;SDS011;64036;48.266;14.192;2023-01-20T11:01:16;15.50;;;8.30;;
75456;SDS011;64036;48.266;14.192;2023-01-20T11:04:28;14.60;;;8.80;;
75456;SDS011;64036;48.266;14.192;2023-01-20T11:07:14;16.90;;;9.00;;
75456;SDS011;64036;48.266;14.192;2023-01-20T11:16:35;14.00;;;9.20;;
75456;SDS011;64036;48.266;14.192;2023-01-20T11:19:11;13.70;;;8.70;;
75456;SDS011;64036;48.266;14.192;2023-01-20T11:21:47;16.80;;;10.00;;
75456;SDS011;64036;48.266;14.192;2023-01-20T11:24:43;16.10;;;10.40;;
75456;SDS011;64036;48.266;14.192;2023-01-20T11:27:26;15.70;;;10.00;;
75456;SDS011;64036;48.266;14.192;2023-01-20T11:30:03;15.30;;;9.40;;
75456;SDS011;64036;48.266;14.192;2023-01-20T11:32:36;14.80;;;9.40;;
75456;SDS011;64036;48.266;14.192;2023-01-20T11:35:23;13.50;;;8.90;;
75456;SDS011;64036;48.266;14.192;2023-01-20T11:37:58;14.50;;;9.30;;
75456;SDS011;64036;48.266;14.192;2023-01-20T11:40:54;14.00;;;9.10;;
75456;SDS011;64036;48.266;14.192;2023-01-20T11:43:50;15.40;;;9.30;;
75456;SDS011;64036;48.266;14.192;2023-01-20T11:46:31;14.40;;;9.40;;
75456;SDS011;64036;48.266;14.192;2023-01-20T11:53:12;14.50;;;8.80;;
75456;SDS011;64036;48.266;14.192;2023-01-20T11:56:24;13.30;;;8.70;;
75456;SDS011;64036;48.266;14.192;2023-01-20T11:59:16;14.40;;;10.10;;
75456;SDS011;64036;48.266;14.192;2023-01-20T12:08:09;14.70;;;9.50;;
75456;SDS011;64036;48.266;14.192;2023-01-20T12:11:08;15.00;;;9.40;;
75456;SDS011;64036;48.266;14.192;2023-01-20T12:14:05;13.80;;;9.10;;
75456;SDS011;64036;48.266;14.192;2023-01-20T12:17:04;15.00;;;9.60;;
75456;SDS011;64036;48.266;14.192;2023-01-20T12:25:31;14.90;;;9.40;;
75456;SDS011;64036;48.266;14.192;2023-01-20T12:28:08;16.10;;;10.50;;
75456;SDS011;64036;48.266;14.192;2023-01-20T12:31:05;15.40;;;10.60;;
75456;SDS011;64036;48.266;14.192;2023-01-20T12:33:34;16.00;;;10.50;;
75456;SDS011;64036;48.266;14.192;2023-01-20T12:36:23;17.10;;;11.20;;
75456;SDS011;64036;48.266;14.192;2023-01-20T12:39:47;15.60;;;10.00;;
75456;SDS011;64036;48.266;14.192;2023-01-20T12:46:10;14.80;;;10.30;;
75456;SDS011;64036;48.266;14.192;2023-01-20T13:04:24;17.30;;;10.80;;
75456;SDS011;64036;48.266;14.192;2023-01-20T13:10:15;17.70;;;10.10;;
75456;SDS011;64036;48.266;14.192;2023-01-20T13:13:22;16.50;;;10.80;;
75456;SDS011;64036;48.266;14.192;2023-01-20T13:22:21;16.10;;;10.50;;
75456;SDS011;64036;48.266;14.192;2023-01-20T13:25:02;17.30;;;10.90;;
75456;SDS011;64036;48.266;14.192;2023-01-20T13:27:50;15.50;;;10.30;;
75456;SDS011;64036;48.266;14.192;2023-01-20T13:33:34;17.20;;;10.70;;
75456;SDS011;64036;48.266;14.192;2023-01-20T13:36:39;19.40;;;11.90;;
75456;SDS011;64036;48.266;14.192;2023-01-20T13:50:53;17.10;;;11.50;;
75456;SDS011;64036;48.266;14.192;2023-01-20T13:56:26;18.00;;;11.30;;
75456;SDS011;64036;48.266;14.192;2023-01-20T14:02:18;18.90;;;11.70;;
75456;SDS011;64036;48.266;14.192;2023-01-20T14:04:49;18.10;;;10.70;;
75456;SDS011;64036;48.266;14.192;2023-01-20T14:07:29;17.80;;;10.50;;
75456;SDS011;64036;48.266;14.192;2023-01-20T14:12:44;17.30;;;11.10;;
75456;SDS011;64036;48.266;14.192;2023-01-20T14:15:29;18.40;;;11.50;;
75456;SDS011;64036;48.266;14.192;2023-01-20T14:17:58;16.60;;;10.50;;
75456;SDS011;64036;48.266;14.192;2023-01-20T14:20:33;14.20;;;9.60;;
75456;SDS011;64036;48.266;14.192;2023-01-20T14:23:26;17.50;;;11.00;;
75456;SDS011;64036;48.266;14.192;2023-01-20T14:26:03;15.40;;;10.50;;
75456;SDS011;64036;48.266;14.192;2023-01-20T14:28:33;16.30;;;10.10;;
75456;SDS011;64036;48.266;14.192;2023-01-20T14:31:13;16.10;;;10.20;;
75456;SDS011;64036;48.266;14.192;2023-01-20T14:37:20;15.90;;;10.30;;
75456;SDS011;64036;48.266;14.192;2023-01-20T14:43:48;19.00;;;10.90;;
75456;SDS011;64036;48.266;14.192;2023-01-20T14:49:50;21.00;;;11.90;;
75456;SDS011;64036;48.266;14.192;2023-01-20T14:52:31;19.50;;;11.30;;
75456;SDS011;64036;48.266;14.192;2023-01-20T14:55:24;23.00;;;12.10;;
75456;SDS011;64036;48.266;14.192;2023-01-20T15:01:26;18.00;;;10.80;;
75456;SDS011;64036;48.266;14.192;2023-01-20T15:04:23;17.40;;;11.30;;
75456;SDS011;64036;48.266;14.192;2023-01-20T15:07:16;21.00;;;11.80;;
75456;SDS011;64036;48.266;14.192;2023-01-20T15:10:23;20.90;;;13.80;;
75456;SDS011;64036;48.266;14.192;2023-01-20T15:13:37;17.90;;;12.10;;
75456;SDS011;64036;48.266;14.192;2023-01-20T15:20:40;19.80;;;11.70;;
75456;SDS011;64036;48.266;14.192;2023-01-20T15:23:50;20.30;;;11.50;;
75456;SDS011;64036;48.266;14.192;2023-01-20T15:32:50;19.90;;;11.50;;
75456;SDS011;64036;48.266;14.192;2023-01-20T15:35:20;18.50;;;11.30;;
75456;SDS011;64036;48.266;14.192;2023-01-20T15:37:48;19.20;;;12.40;;
75456;SDS011;64036;48.266;14.192;2023-01-20T15:40:15;18.90;;;12.50;;
75456;SDS011;64036;48.266;14.192;2023-01-20T15:42:46;19.00;;;12.20;;
75456;SDS011;64036;48.266;14.192;2023-01-20T15:50:56;19.30;;;11.20;;
75456;SDS011;64036;48.266;14.192;2023-01-20T15:53:45;20.20;;;12.70;;
75456;SDS011;64036;48.266;14.192;2023-01-20T15:56:28;13.90;;;8.50;;
75456;SDS011;64036;48.266;14.192;2023-01-20T15:59:00;21.10;;;12.40;;
75456;SDS011;64036;48.266;14.192;2023-01-20T16:01:38;20.00;;;11.20;;
75456;SDS011;64036;48.266;14.192;2023-01-20T16:04:09;21.00;;;12.70;;
75456;SDS011;64036;48.266;14.192;2023-01-20T16:06:36;20.40;;;11.60;;
75456;SDS011;64036;48.266;14.192;2023-01-20T16:09:14;20.50;;;12.40;;
75456;SDS011;64036;48.266;14.192;2023-01-20T16:11:49;21.60;;;13.10;;
75456;SDS011;64036;48.266;14.192;2023-01-20T16:14:23;19.70;;;11.90;;
75456;SDS011;64036;48.266;14.192;2023-01-20T16:17:18;20.80;;;12.40;;
75456;SDS011;64036;48.266;14.192;2023-01-20T16:19:46;20.00;;;12.70;;
75456;SDS011;64036;48.266;14.192;2023-01-20T16:22:16;21.20;;;12.30;;
75456;SDS011;64036;48.266;14.192;2023-01-20T16:24:44;19.50;;;12.90;;
75456;SDS011;64036;48.266;14.192;2023-01-20T16:27:30;22.00;;;13.90;;
75456;SDS011;64036;48.266;14.192;2023-01-20T16:29:58;19.80;;;12.40;;
75456;SDS011;64036;48.266;14.192;2023-01-20T16:32:26;20.30;;;12.20;;
75456;SDS011;64036;48.266;14.192;2023-01-20T16:34:52;22.10;;;13.10;;
75456;SDS011;64036;48.266;14.192;2023-01-20T16:37:44;19.60;;;12.50;;
75456;SDS011;64036;48.266;14.192;2023-01-20T16:43:29;22.20;;;13.00;;
75456;SDS011;64036;48.266;14.192;2023-01-20T16:46:03;24.50;;;14.60;;
75456;SDS011;64036;48.266;14.192;2023-01-20T16:48:54;22.20;;;12.40;;
75456;SDS011;64036;48.266;14.192;2023-01-20T16:51:31;20.50;;;12.50;;
75456;SDS011;64036;48.266;14.192;2023-01-20T16:54:08;20.50;;;12.60;;
75456;SDS011;64036;48.266;14.192;2023-01-20T16:56:45;21.20;;;13.30;;
75456;SDS011;64036;48.266;14.192;2023-01-20T16:59:29;20.70;;;12.40;;
75456;SDS011;64036;48.266;14.192;2023-01-20T17:02:08;20.20;;;12.00;;
75456;SDS011;64036;48.266;14.192;2023-01-20T17:07:41;20.30;;;12.20;;
75456;SDS011;64036;48.266;14.192;2023-01-20T17:10:17;20.40;;;11.30;;
75456;SDS011;64036;48.266;14.192;2023-01-20T17:12:57;21.50;;;13.10;;
75456;SDS011;64036;48.266;14.192;2023-01-20T17:15:23;21.50;;;11.70;;
75456;SDS011;64036;48.266;14.192;2023-01-20T17:18:04;22.40;;;13.00;;
75456;SDS011;64036;48.266;14.192;2023-01-20T17:20:33;22.70;;;12.90;;
75456;SDS011;64036;48.266;14.192;2023-01-20T17:23:08;23.10;;;13.30;;
75456;SDS011;64036;48.266;14.192;2023-01-20T17:26:02;22.90;;;14.40;;
75456;SDS011;64036;48.266;14.192;2023-01-20T17:29:13;23.10;;;13.50;;
75456;SDS011;64036;48.266;14.192;2023-01-20T17:32:19;20.90;;;12.90;;
75456;SDS011;64036;48.266;14.192;2023-01-20T17:34:54;22.80;;;13.60;;
75456;SDS011;64036;48.266;14.192;2023-01-20T17:37:22;23.10;;;13.50;;
75456;SDS011;64036;48.266;14.192;2023-01-20T17:40:10;23.40;;;14.70;;
75456;SDS011;64036;48.266;14.192;2023-01-20T17:42:51;23.40;;;13.30;;
75456;SDS011;64036;48.266;14.192;2023-01-20T17:48:34;23.70;;;13.90;;
75456;SDS011;64036;48.266;14.192;2023-01-20T17:51:39;23.00;;;14.20;;
75456;SDS011;64036;48.266;14.192;2023-01-20T17:54:40;21.80;;;12.60;;
75456;SDS011;64036;48.266;14.192;2023-01-20T17:57:36;22.40;;;13.80;;
75456;SDS011;64036;48.266;14.192;2023-01-20T18:00:16;24.00;;;14.70;;
75456;SDS011;64036;48.266;14.192;2023-01-20T18:03:05;26.00;;;14.30;;
75456;SDS011;64036;48.266;14.192;2023-01-20T18:05:31;22.60;;;12.90;;
75456;SDS011;64036;48.266;14.192;2023-01-20T18:08:09;21.00;;;13.10;;
75456;SDS011;64036;48.266;14.192;2023-01-20T18:10:39;21.40;;;13.10;;
75456;SDS011;64036;48.266;14.192;2023-01-20T18:13:14;21.90;;;12.60;;
75456;SDS011;64036;48.266;14.192;2023-01-20T18:16:09;21.90;;;13.20;;
75456;SDS011;64036;48.266;14.192;2023-01-20T18:21:56;20.70;;;12.30;;
75456;SDS011;64036;48.266;14.192;2023-01-20T18:24:26;24.20;;;14.00;;
75456;SDS011;64036;48.266;14.192;2023-01-20T18:26:52;21.40;;;12.90;;
75456;SDS011;64036;48.266;14.192;2023-01-20T18:29:36;20.30;;;11.70;;
75456;SDS011;64036;48.266;14.192;2023-01-20T18:32:25;24.00;;;15.30;;
75456;SDS011;64036;48.266;14.192;2023-01-20T18:35:09;29.20;;;15.30;;
75456;SDS011;64036;48.266;14.192;2023-01-20T18:37:43;23.60;;;14.20;;
75456;SDS011;64036;48.266;14.192;2023-01-20T18:40:12;26.90;;;15.90;;
75456;SDS011;64036;48.266;14.192;2023-01-20T18:42:59;25.80;;;15.40;;
75456;SDS011;64036;48.266;14.192;2023-01-20T18:45:29;24.70;;;13.60;;
75456;SDS011;64036;48.266;14.192;2023-01-20T18:48:03;25.30;;;14.10;;
75456;SDS011;64036;48.266;14.192;2023-01-20T18:50:42;25.10;;;14.20;;
75456;SDS011;64036;48.266;14.192;2023-01-20T18:53:13;24.80;;;13.30;;
75456;SDS011;64036;48.266;14.192;2023-01-20T18:55:47;24.30;;;14.50;;
75456;SDS011;64036;48.266;14.192;2023-01-20T18:58:23;26.10;;;15.50;;
75456;SDS011;64036;48.266;14.192;2023-01-20T19:00:51;26.10;;;15.60;;
75456;SDS011;64036;48.266;14.192;2023-01-20T19:03:40;25.70;;;14.50;;
75456;SDS011;64036;48.266;14.192;2023-01-20T19:06:26;25.30;;;13.80;;
75456;SDS011;64036;48.266;14.192;2023-01-20T19:08:55;25.10;;;14.80;;
75456;SDS011;64036;48.266;14.192;2023-01-20T19:11:33;22.30;;;12.90;;
75456;SDS011;64036;48.266;14.192;2023-01-20T19:14:01;26.30;;;14.80;;
75456;SDS011;64036;48.266;14.192;2023-01-20T19:16:30;22.80;;;13.80;;
75456;SDS011;64036;48.266;14.192;2023-01-20T19:19:08;21.60;;;12.70;;
75456;SDS011;64036;48.266;14.192;2023-01-20T19:21:41;24.50;;;14.90;;
75456;SDS011;64036;48.266;14.192;2023-01-20T19:24:31;20.00;;;12.10;;
75456;SDS011;64036;48.266;14.192;2023-01-20T19:27:00;23.80;;;14.60;;
75456;SDS011;64036;48.266;14.192;2023-01-20T19:29:56;20.60;;;13.60;;
75456;SDS011;64036;48.266;14.192;2023-01-20T19:32:31;23.60;;;13.00;;
75456;SDS011;64036;48.266;14.192;2023-01-20T19:38:19;22.90;;;12.80;;
75456;SDS011;64036;48.266;14.192;2023-01-20T19:40:47;21.00;;;12.30;;
75456;SDS011;64036;48.266;14.192;2023-01-20T19:43:36;19.80;;;11.70;;
75456;SDS011;64036;48.266;14.192;2023-01-20T19:46:11;20.70;;;12.50;;
75456;SDS011;64036;48.266;14.192;2023-01-20T19:49:11;19.80;;;12.10;;
75456;SDS011;64036;48.266;14.192;2023-01-20T19:55:07;21.70;;;13.00;;
75456;SDS011;64036;48.266;14.192;2023-01-20T19:57:59;18.80;;;11.20;;
75456;SDS011;64036;48.266;14.192;2023-01-20T20:00:53;21.00;;;11.90;;
75456;SDS011;64036;48.266;14.192;2023-01-20T20:03:50;17.10;;;10.00;;
75456;SDS011;64036;48.266;14.192;2023-01-20T20:06:50;19.00;;;11.30;;
75456;SDS011;64036;48.266;14.192;2023-01-20T20:09:39;21.00;;;11.40;;
75456;SDS011;64036;48.266;14.192;2023-01-20T20:16:09;21.30;;;11.80;;
75456;SDS011;64036;48.266;14.192;2023-01-20T20:18:54;19.50;;;11.30;;
75456;SDS011;64036;48.266;14.192;2023-01-20T20:21:46;19.20;;;11.10;;
75456;SDS011;64036;48.266;14.192;2023-01-20T20:24:15;20.70;;;11.90;;
75456;SDS011;64036;48.266;14.192;2023-01-20T20:26:43;21.50;;;12.70;;